Amo, Colorado
Current Conditions -  °F | °C
As of 1:33 PM on Thursday 23 Oct 2014 (Local Time) from KFLY Reporting Station
Clear Clear  
Wind Chill: 68°   Ceiling: Unl
Heat Index: 68°   Visibility: 10mi
Dew Point: 22°   Wind: 6mph
Humidity: 18%   Direction: 260°W
Pressure: 30.23"   Gusts: NA
Location:  39.0051°N, 104.503°W
Report Text: KFLY 231933Z AUTO 26005KT 10SM CLR 20/M05 A3023 RMK AO2 T02011053
Loading
Personal Weather Stations






























Interactive Weather Map
Tropical Storm Tracking
New forecast layout! Learn more

10-Day Weather Forecast

Advertisements
Track Severe Weather on mobile